Wetterdaten: Woche 23.05.05 - 29.05.05 (KW21)
Datum Zeit Temperatur Luftfeuchte Luftdruck Niederschlag Windrichtung Wind
23.05.2005 00:00 12,3 C 81 % 1016 hPa 0,0 l/m S-SW 4,9 km/h (1 Bft)
23.05.2005 01:00 12,0 C 85 % 1016 hPa 0,0 l/m S-SW 6,4 km/h (2 Bft)
23.05.2005 02:00 11,8 C 88 % 1016 hPa 0,0 l/m S 4,6 km/h (1 Bft)
23.05.2005 03:00 11,6 C 91 % 1016 hPa 0,0 l/m S 1,9 km/h (1 Bft)
23.05.2005 04:00 11,4 C 91 % 1015 hPa 0,0 l/m W 1,9 km/h (1 Bft)
23.05.2005 05:00 11,4 C 92 % 1016 hPa 1,0 l/m W-SW 4,4 km/h (1 Bft)
23.05.2005 06:00 11,0 C 96 % 1016 hPa 3,0 l/m W 6,4 km/h (2 Bft)
23.05.2005 07:00 10,9 C 98 % 1016 hPa 1,0 l/m N-NW 1,1 km/h (0 Bft)
23.05.2005 08:00 10,9 C 98 % 1016 hPa 1,0 l/m W 4,5 km/h (1 Bft)
23.05.2005 09:00 10,7 C 98 % 1017 hPa 3,0 l/m W 8,0 km/h (2 Bft)
23.05.2005 10:00 10,3 C 98 % 1018 hPa 4,0 l/m W 11,9 km/h (2 Bft)
23.05.2005 11:00 10,6 C 98 % 1018 hPa 1,0 l/m W 13,4 km/h (3 Bft)
23.05.2005 12:00 11,5 C 88 % 1019 hPa 0,0 l/m W 15,7 km/h (3 Bft)
23.05.2005 13:00 11,4 C 87 % 1019 hPa 0,0 l/m W 9,2 km/h (2 Bft)
23.05.2005 14:00 12,0 C 84 % 1019 hPa 0,0 l/m W 5,9 km/h (2 Bft)
23.05.2005 15:00 12,1 C 84 % 1020 hPa 1,0 l/m S-SW 7,3 km/h (2 Bft)
23.05.2005 16:00 11,5 C 91 % 1020 hPa 0,0 l/m S-SW 12,0 km/h (2 Bft)
23.05.2005 17:00 11,1 C 95 % 1021 hPa 1,0 l/m S-SW 11,1 km/h (2 Bft)
23.05.2005 18:00 11,4 C 97 % 1021 hPa 0,0 l/m S-SW 11,8 km/h (2 Bft)
23.05.2005 19:00 11,9 C 93 % 1022 hPa 0,0 l/m S 14,2 km/h (3 Bft)
23.05.2005 20:00 11,0 C 95 % 1023 hPa 0,0 l/m S-SW 12,5 km/h (3 Bft)
23.05.2005 21:00 10,7 C 96 % 1023 hPa 0,0 l/m S 10,1 km/h (2 Bft)
23.05.2005 22:00 10,1 C 98 % 1024 hPa 0,0 l/m S 13,0 km/h (3 Bft)
23.05.2005 23:00 9,6 C 99 % 1024 hPa 0,0 l/m S-SO 8,6 km/h (2 Bft)
24.05.2005 00:00 9,4 C 100 % 1024 hPa 0,0 l/m SO 4,7 km/h (1 Bft)
24.05.2005 01:00 9,3 C 100 % 1025 hPa 0,0 l/m S 3,0 km/h (1 Bft)
24.05.2005 02:00 9,3 C 100 % 1025 hPa 1,0 l/m S 3,3 km/h (1 Bft)
24.05.2005 03:00 9,1 C 100 % 1025 hPa 0,0 l/m S-SO 2,1 km/h (1 Bft)
24.05.2005 04:00 9,0 C 100 % 1025 hPa 0,0 l/m S-SO 2,3 km/h (1 Bft)
24.05.2005 05:00 8,7 C 100 % 1025 hPa 0,0 l/m S 5,9 km/h (2 Bft)
24.05.2005 06:00 8,5 C 100 % 1025 hPa 0,0 l/m N 0,0 km/h (0 Bft)
24.05.2005 07:00 9,6 C 100 % 1025 hPa 0,0 l/m N 0,0 km/h (0 Bft)
24.05.2005 08:00 10,7 C 100 % 1025 hPa 0,0 l/m N 0,0 km/h (0 Bft)
24.05.2005 09:00 12,2 C 92 % 1026 hPa 0,0 l/m O 4,4 km/h (1 Bft)
24.05.2005 10:00 14,7 C 70 % 1025 hPa 0,0 l/m O 9,4 km/h (2 Bft)
24.05.2005 11:00 16,6 C 55 % 1025 hPa 0,0 l/m O 9,1 km/h (2 Bft)
24.05.2005 12:00 18,0 C 48 % 1025 hPa 0,0 l/m O 8,0 km/h (2 Bft)
24.05.2005 13:00 17,7 C 46 % 1025 hPa 0,0 l/m N-NO 6,6 km/h (2 Bft)
24.05.2005 14:00 19,1 C 43 % 1025 hPa 0,0 l/m O 10,2 km/h (2 Bft)
24.05.2005 15:00 18,9 C 43 % 1025 hPa 0,0 l/m S 8,8 km/h (2 Bft)
24.05.2005 16:00 19,9 C 38 % 1025 hPa 0,0 l/m S-SW 5,5 km/h (1 Bft)
24.05.2005 17:00 19,6 C 40 % 1025 hPa 0,0 l/m O-NO 9,4 km/h (2 Bft)
24.05.2005 18:00 19,9 C 38 % 1024 hPa 0,0 l/m O-NO 3,8 km/h (1 Bft)
24.05.2005 19:00 19,6 C 39 % 1025 hPa 0,0 l/m W 0,3 km/h (0 Bft)
24.05.2005 20:00 16,7 C 55 % 1025 hPa 0,0 l/m N 0,0 km/h (0 Bft)
24.05.2005 21:00 13,8 C 61 % 1025 hPa 0,0 l/m N 0,0 km/h (0 Bft)
24.05.2005 22:00 11,8 C 70 % 1026 hPa 0,0 l/m N 0,0 km/h (0 Bft)
24.05.2005 23:00 10,7 C 77 % 1026 hPa 0,0 l/m N 0,0 km/h (0 Bft)
25.05.2005 00:00 9,7 C 82 % 1026 hPa 0,0 l/m N 0,0 km/h (0 Bft)
25.05.2005 01:00 9,0 C 86 % 1026 hPa 0,0 l/m N 0,0 km/h (0 Bft)
25.05.2005 02:00 8,3 C 88 % 1026 hPa 0,0 l/m N 0,0 km/h (0 Bft)
25.05.2005 03:00 7,6 C 90 % 1027 hPa 0,0 l/m N 0,0 km/h (0 Bft)
25.05.2005 04:00 7,1 C 93 % 1027 hPa 0,0 l/m N 0,0 km/h (0 Bft)
25.05.2005 05:00 6,7 C 95 % 1027 hPa 0,0 l/m N 0,0 km/h (0 Bft)
25.05.2005 06:00 7,0 C 97 % 1027 hPa 0,0 l/m N 0,0 km/h (0 Bft)
25.05.2005 07:00 9,0 C 97 % 1027 hPa 0,0 l/m N 0,0 km/h (0 Bft)
25.05.2005 08:00 12,1 C 86 % 1027 hPa 0,0 l/m S 1,4 km/h (1 Bft)
25.05.2005 09:00 15,5 C 67 % 1027 hPa 0,0 l/m S 5,2 km/h (1 Bft)
25.05.2005 10:00 18,7 C 49 % 1027 hPa 0,0 l/m O 6,8 km/h (2 Bft)
25.05.2005 11:00 20,9 C 40 % 1027 hPa 0,0 l/m O-NO 10,9 km/h (2 Bft)
25.05.2005 12:00 22,7 C 36 % 1027 hPa 0,0 l/m O 11,2 km/h (2 Bft)
25.05.2005 13:00 23,7 C 35 % 1026 hPa 0,0 l/m O-SO 10,0 km/h (2 Bft)
25.05.2005 14:00 24,4 C 34 % 1026 hPa 0,0 l/m N-NW 9,8 km/h (2 Bft)
25.05.2005 15:00 24,9 C 33 % 1026 hPa 0,0 l/m N-NW 10,0 km/h (2 Bft)
25.05.2005 16:00 25,3 C 31 % 1026 hPa 0,0 l/m N-NO 9,7 km/h (2 Bft)
25.05.2005 17:00 25,4 C 32 % 1025 hPa 0,0 l/m O-NO 11,3 km/h (2 Bft)
25.05.2005 18:00 24,6 C 34 % 1025 hPa 0,0 l/m O-NO 12,3 km/h (3 Bft)
25.05.2005 19:00 23,1 C 37 % 1025 hPa 0,0 l/m N-NO 13,1 km/h (3 Bft)
25.05.2005 20:00 21,4 C 44 % 1025 hPa 0,0 l/m N-NO 6,3 km/h (2 Bft)
25.05.2005 21:00 18,4 C 56 % 1025 hPa 0,0 l/m N 0,0 km/h (0 Bft)
25.05.2005 22:00 15,9 C 67 % 1025 hPa 0,0 l/m N 0,0 km/h (0 Bft)
25.05.2005 23:00 14,5 C 72 % 1025 hPa 0,0 l/m N 0,0 km/h (0 Bft)
26.05.2005 00:00 13,6 C 75 % 1025 hPa 0,0 l/m N 0,0 km/h (0 Bft)
26.05.2005 01:00 13,0 C 77 % 1024 hPa 0,0 l/m W-NW 0,9 km/h (0 Bft)
26.05.2005 02:00 12,5 C 77 % 1024 hPa 0,0 l/m W-NW 4,8 km/h (1 Bft)
26.05.2005 03:00 12,0 C 77 % 1024 hPa 0,0 l/m W-NW 7,1 km/h (2 Bft)
26.05.2005 04:00 11,7 C 79 % 1024 hPa 0,0 l/m NW 7,5 km/h (2 Bft)
26.05.2005 05:00 11,2 C 82 % 1023 hPa 0,0 l/m W-NW 1,2 km/h (1 Bft)
26.05.2005 06:00 11,3 C 85 % 1024 hPa 0,0 l/m NW 9,4 km/h (2 Bft)
26.05.2005 07:00 12,5 C 83 % 1024 hPa 0,0 l/m N-NW 5,6 km/h (1 Bft)
26.05.2005 08:00 14,7 C 74 % 1024 hPa 0,0 l/m NO 3,3 km/h (1 Bft)
26.05.2005 09:00 17,5 C 65 % 1024 hPa 0,0 l/m N-NW 4,8 km/h (1 Bft)
26.05.2005 10:00 20,4 C 53 % 1024 hPa 0,0 l/m S 6,0 km/h (2 Bft)
26.05.2005 11:00 23,3 C 45 % 1023 hPa 0,0 l/m O 8,0 km/h (2 Bft)
26.05.2005 12:00 25,2 C 40 % 1023 hPa 0,0 l/m N-NO 8,1 km/h (2 Bft)
26.05.2005 13:00 26,1 C 35 % 1023 hPa 0,0 l/m S 6,6 km/h (2 Bft)
26.05.2005 14:00 27,4 C 32 % 1022 hPa 0,0 l/m O 7,7 km/h (2 Bft)
26.05.2005 15:00 28,2 C 31 % 1022 hPa 0,0 l/m O 8,1 km/h (2 Bft)
26.05.2005 16:00 29,2 C 28 % 1022 hPa 0,0 l/m NO 6,4 km/h (2 Bft)
26.05.2005 17:00 29,1 C 26 % 1021 hPa 0,0 l/m W 5,5 km/h (1 Bft)
26.05.2005 18:00 29,2 C 29 % 1021 hPa 0,0 l/m NO 8,0 km/h (2 Bft)
26.05.2005 19:00 27,6 C 32 % 1021 hPa 0,0 l/m N-NO 7,6 km/h (2 Bft)
26.05.2005 20:00 24,5 C 43 % 1021 hPa 0,0 l/m O-NO 0,8 km/h (0 Bft)
26.05.2005 21:00 20,6 C 54 % 1021 hPa 0,0 l/m N 0,0 km/h (0 Bft)
26.05.2005 22:00 18,6 C 60 % 1021 hPa 0,0 l/m W 4,0 km/h (1 Bft)
26.05.2005 23:00 17,3 C 63 % 1021 hPa 0,0 l/m W-NW 2,9 km/h (1 Bft)
27.05.2005 00:00 16,4 C 67 % 1021 hPa 0,0 l/m NW 2,0 km/h (1 Bft)
27.05.2005 01:00 15,7 C 69 % 1021 hPa 0,0 l/m W-NW 2,8 km/h (1 Bft)
27.05.2005 02:00 14,7 C 73 % 1020 hPa 0,0 l/m N 0,0 km/h (0 Bft)
27.05.2005 03:00 13,7 C 77 % 1020 hPa 0,0 l/m N 0,0 km/h (0 Bft)
27.05.2005 04:00 12,7 C 82 % 1020 hPa 0,0 l/m N 0,0 km/h (0 Bft)
27.05.2005 05:00 12,0 C 85 % 1020 hPa 0,0 l/m N 0,0 km/h (0 Bft)
27.05.2005 06:00 12,1 C 88 % 1020 hPa 0,0 l/m N 0,0 km/h (0 Bft)
27.05.2005 07:00 14,2 C 86 % 1020 hPa 0,0 l/m N-NW 0,7 km/h (0 Bft)
27.05.2005 08:00 17,1 C 74 % 1020 hPa 0,0 l/m N-NO 2,0 km/h (1 Bft)
27.05.2005 09:00 20,0 C 62 % 1020 hPa 0,0 l/m S 1,0 km/h (0 Bft)
27.05.2005 10:00 23,2 C 48 % 1020 hPa 0,0 l/m O 4,5 km/h (1 Bft)
27.05.2005 11:00 26,2 C 38 % 1020 hPa 0,0 l/m O 7,5 km/h (2 Bft)
27.05.2005 12:00 27,9 C 35 % 1019 hPa 0,0 l/m O 6,2 km/h (2 Bft)
27.05.2005 13:00 29,3 C 28 % 1019 hPa 0,0 l/m O-NO 10,8 km/h (2 Bft)
27.05.2005 14:00 29,8 C 25 % 1019 hPa 0,0 l/m N 11,7 km/h (2 Bft)
27.05.2005 15:00 30,0 C 24 % 1019 hPa 0,0 l/m N-NO 10,5 km/h (2 Bft)
27.05.2005 16:00 30,2 C 30 % 1019 hPa 0,0 l/m O-NO 9,1 km/h (2 Bft)
27.05.2005 17:00 30,2 C 31 % 1018 hPa 0,0 l/m N-NO 3,5 km/h (1 Bft)
27.05.2005 18:00 29,9 C 31 % 1018 hPa 0,0 l/m NO 12,6 km/h (3 Bft)
27.05.2005 19:00 29,3 C 30 % 1017 hPa 0,0 l/m NO 13,9 km/h (3 Bft)
28.05.2005 18:00 32,1 C 23 % 1018 hPa 0,0 l/m N-NO 6,2 km/h (2 Bft)
28.05.2005 19:00 30,4 C 28 % 1017 hPa 0,0 l/m N-NO 8,1 km/h (2 Bft)
28.05.2005 20:00 26,3 C 37 % 1018 hPa 0,0 l/m N-NW 0,3 km/h (0 Bft)
28.05.2005 21:00 22,8 C 45 % 1018 hPa 0,0 l/m N 0,0 km/h (0 Bft)
28.05.2005 22:00 20,2 C 54 % 1019 hPa 0,0 l/m S-SW 1,7 km/h (1 Bft)
28.05.2005 23:00 19,8 C 55 % 1019 hPa 0,0 l/m S 15,9 km/h (3 Bft)
29.05.2005 00:00 20,6 C 47 % 1019 hPa 0,0 l/m S-SW 11,0 km/h (2 Bft)
29.05.2005 01:00 19,1 C 53 % 1019 hPa 0,0 l/m O 2,9 km/h (1 Bft)
29.05.2005 02:00 17,2 C 63 % 1019 hPa 0,0 l/m N 0,0 km/h (0 Bft)
29.05.2005 03:00 16,0 C 70 % 1019 hPa 0,0 l/m N 0,0 km/h (0 Bft)
29.05.2005 04:00 15,1 C 74 % 1019 hPa 0,0 l/m N 0,0 km/h (0 Bft)
29.05.2005 05:00 14,4 C 78 % 1019 hPa 0,0 l/m N 0,0 km/h (0 Bft)
29.05.2005 06:00 14,3 C 82 % 1019 hPa 0,0 l/m N 0,0 km/h (0 Bft)
29.05.2005 07:00 15,6 C 81 % 1019 hPa 0,0 l/m S 0,9 km/h (0 Bft)
29.05.2005 08:00 18,6 C 71 % 1019 hPa 0,0 l/m S 9,0 km/h (2 Bft)
29.05.2005 09:00 21,2 C 60 % 1019 hPa 0,0 l/m S 8,7 km/h (2 Bft)
29.05.2005 10:00 24,0 C 51 % 1019 hPa 0,0 l/m O 5,9 km/h (2 Bft)
29.05.2005 11:00 26,6 C 45 % 1019 hPa 0,0 l/m S-SO 6,7 km/h (2 Bft)
29.05.2005 12:00 28,6 C 36 % 1019 hPa 0,0 l/m O 10,1 km/h (2 Bft)
29.05.2005 13:00 29,9 C 33 % 1018 hPa 0,0 l/m O-NO 12,0 km/h (2 Bft)
29.05.2005 14:00 30,7 C 32 % 1018 hPa 0,0 l/m O-SO 9,3 km/h (2 Bft)
29.05.2005 15:00 31,5 C 31 % 1017 hPa 0,0 l/m O 9,3 km/h (2 Bft)
29.05.2005 16:00 32,2 C 29 % 1016 hPa 0,0 l/m O-NO 11,5 km/h (2 Bft)
29.05.2005 17:00 32,6 C 27 % 1016 hPa 0,0 l/m O 9,0 km/h (2 Bft)
29.05.2005 18:00 32,0 C 29 % 1016 hPa 0,0 l/m S-SW 3,8 km/h (1 Bft)
29.05.2005 19:00 30,3 C 34 % 1015 hPa 0,0 l/m S 0,9 km/h (0 Bft)
29.05.2005 20:00 27,1 C 47 % 1015 hPa 0,0 l/m N 0,0 km/h (0 Bft)
29.05.2005 21:00 24,4 C 51 % 1016 hPa 0,0 l/m N 0,0 km/h (0 Bft)
29.05.2005 22:00 22,1 C 59 % 1016 hPa 0,0 l/m N 0,0 km/h (0 Bft)
29.05.2005 23:00 20,1 C 66 % 1016 hPa 0,0 l/m N 0,0 km/h (0 Bft)
Min-Datum _ 25.05.05 27.05.05 23.05.05 - - 23.05.05
_ Min-Zeit 05:53 15:39 02:29 - - 00:00
Minimum _ 6,5 C 22 % 1015 hPa - - 0,0 km/h (0 Bft)
Max-Datum _ 29.05.05 24.05.05 25.05.05 23.05.05 - 23.05.05
_ Max-Zeit 17:35 00:09 03:30 10:00 - 11:34
Maximum _ 32,8 C 100 % 1027 hPa 4,0 l/m - 33,8 km/h
W (5 Bft)
Durchschnitt _ 18,0 C 64 % 1022 hPa #17,0 l/m S 5,4 km/h (1 Bft)

Durchschnitt Minimum Temp.17,3 C
Durchschnitt Maximum Temp.18,6 C